< Typhoon 200503 2005 Season Typhoon 200505 >
Typhoon 200504 (NESAT)
General InformationTrack Information on Google MapsDetailed Wind InformationAccess Analytics MapList of All Images || NewsDisaster Info.WeblogTrackbackTyphoon FrontResourceGoogle EarthGE AnimationAtom FeedGeoJSON
Detalied Best Track (Time Zone = UTC)
Year Month Day Hour Lat. Long. Pressure (hPa) Wind (kt) Class Image Chart
2005 5 30 00 8.7 148.4 1008 0 2 Image Chart
2005 5 30 06 9.1 147.3 1006 0 2 Image Chart
2005 5 30 12 9.3 146.6 1006 0 2 Image Chart
2005 5 30 18 9.5 146.1 1004 0 2 Image Chart
2005 5 31 00 9.7 145.6 1004 0 2 Image Chart
2005 5 31 06 9.9 145.0 1002 0 2 Image Chart
2005 5 31 12 10.3 144.4 1000 35 3 Image Chart
2005 5 31 18 10.5 143.7 994 45 3 Image Chart
2005 6 1 00 10.8 142.8 985 50 4 Image Chart
2005 6 1 06 10.7 141.6 975 60 4 Image Chart
2005 6 1 12 10.6 140.5 965 70 5 Image Chart
2005 6 1 18 10.7 139.6 955 75 5 Image Chart
2005 6 2 00 11.2 138.5 945 80 5 Image Chart
2005 6 2 06 11.5 137.4 940 85 5 Image Chart
2005 6 2 12 11.7 136.3 935 90 5 Image Chart
2005 6 2 18 12.1 135.4 935 90 5 Image Chart
2005 6 3 00 12.3 134.4 935 90 5 Image Chart
2005 6 3 06 13.0 133.7 935 90 5 Image Chart
2005 6 3 12 13.7 132.6 935 90 5 Image Chart
2005 6 3 18 14.1 131.8 935 90 5 Image Chart
2005 6 4 00 14.6 131.4 930 95 5 Image Chart
2005 6 4 06 15.2 131.0 930 95 5 Image Chart
2005 6 4 12 15.7 130.6 930 95 5 Image Chart
2005 6 4 18 16.4 130.4 940 90 5 Image Chart
2005 6 5 00 17.3 130.4 945 85 5 Image Chart
2005 6 5 06 18.1 130.9 945 85 5 Image Chart
2005 6 5 12 18.9 131.3 950 80 5 Image Chart
2005 6 5 18 19.6 132.0 955 80 5 Image Chart
2005 6 6 00 20.6 132.5 955 80 5 Image Chart
2005 6 6 06 21.3 133.4 945 85 5 Image Chart
2005 6 6 12 21.9 133.8 945 85 5 Image Chart
2005 6 6 18 22.3 134.1 945 85 5 Image Chart
2005 6 7 00 22.9 134.2 945 80 5 Image Chart
2005 6 7 06 23.5 134.1 950 80 5 Image Chart
2005 6 7 12 23.8 133.8 955 80 5 Image Chart
2005 6 7 18 24.4 133.7 955 80 5 Image Chart
2005 6 8 00 25.0 133.9 955 75 5 Image Chart
2005 6 8 06 25.6 134.3 960 70 5 Image Chart
2005 6 8 12 26.2 135.2 970 65 5 Image Chart
2005 6 8 18 26.9 135.9 970 60 4 Image Chart
2005 6 9 00 27.7 136.5 975 60 4 Image Chart
2005 6 9 06 28.5 137.1 975 60 4 Image Chart
2005 6 9 12 29.1 137.7 980 55 4 Image Chart
2005 6 9 18 29.8 138.2 985 50 4 Image Chart
2005 6 10 00 30.4 138.7 990 45 3 Image Chart
2005 6 10 03 30.8 139.0 990 45 3 Image Chart
2005 6 10 06 31.1 139.4 990 45 3 Image Chart
2005 6 10 09 31.4 140.2 990 45 3 Image Chart
2005 6 10 12 31.9 141.1 992 45 3 Image Chart
2005 6 10 18 32.7 142.4 994 40 3 Image Chart
2005 6 11 00 34.6 145.1 994 0 2 Image Chart
2005 6 11 06 36.6 147.4 996 0 2 Image Chart
Japan Meteorological Agency Best Track Data | Correction Date : 2005-12-19
< Typhoon 200503 2005 Season Typhoon 200505 >

Help